Bainbridge, Georgia
Current Conditions -  °F | °C
As of 6:15 AM on Sunday 21 Dec 2014 (Local Time) from KBGE Reporting Station
Moderate Rain Moderate Rain  
Wind Chill: 13°   Ceiling: 1100
Heat Index: 13°   Visibility: 7mi
Dew Point: 12°   Wind: 6mph
Humidity: 94%   Direction: 50°NE
Pressure: 30.12"   Gusts: NA
Location:  30.91°N, 84.57°W
Report Text: KBGE 211115Z AUTO 05005KT 7SM RA BKN011 OVC015 13/12 A3012 RMK AO2
Loading
Personal Weather Stations






























Interactive Weather Map New forecast layout! Learn more

10-Day Weather Forecast

Advertisements
Track Severe Weather on mobile